Time;durP1;ratioP1;P1;durP2;ratioP2;P2;SDS_P1;SDS_P2;PMS_P1;PMS_P2;Temp;Humidity;BMP_temperature;BMP_pressure;BME280_temperature;BME280_humidity;BME280_pressure;Samples;Min_cycle;Max_cycle;Signal;HPM_P1;HPM_P2
2022/03/21 00:00:30;;;;;;;22.90;16.13;;;;;;;13.50;34.05;101889.41;10370310;28;20688;-90
2022/03/21 00:05:32;;;;;;;21.63;16.40;;;;;;;14.00;32.95;101883.28;10357050;28;20283;-89
2022/03/21 00:10:35;;;;;;;20.13;15.20;;;;;;;13.34;34.80;101874.00;10350218;28;20241;-89
2022/03/21 00:15:37;;;;;;;23.93;16.40;;;;;;;12.73;35.42;101892.75;10348571;28;20260;-89
2022/03/21 00:20:45;;;;;;;27.47;15.97;;;;;;;12.79;35.44;101890.63;10339556;28;20209;-89
2022/03/21 00:25:47;;;;;;;26.27;17.90;;;;;;;12.99;36.21;101892.09;10379458;28;20224;-89
2022/03/21 00:30:49;;;;;;;24.63;16.43;;;;;;;12.93;35.00;101890.56;10335169;28;20291;-89
2022/03/21 00:35:52;;;;;;;22.57;16.47;;;;;;;13.47;34.00;101889.25;10362037;28;20228;-88
2022/03/21 00:40:54;;;;;;;23.17;16.30;;;;;;;13.34;34.42;101885.34;10353031;28;20480;-89
2022/03/21 00:46:02;;;;;;;21.97;14.70;;;;;;;12.84;35.16;101893.31;10331408;28;20237;-90
2022/03/21 00:51:06;;;;;;;21.47;16.17;;;;;;;12.09;36.30;101900.69;10345601;28;20228;-89
2022/03/21 00:56:08;;;;;;;22.43;16.20;;;;;;;12.76;35.36;101902.63;10350859;28;20259;-89
2022/03/21 01:01:20;;;;;;;25.87;17.00;;;;;;;13.58;34.08;101891.44;10356397;28;20216;-89
2022/03/21 01:06:23;;;;;;;22.70;16.00;;;;;;;14.03;32.63;101901.69;10349186;28;20240;-89
2022/03/21 01:11:25;;;;;;;26.00;17.27;;;;;;;13.87;32.77;101892.81;10353958;28;20257;-88
2022/03/21 01:16:28;;;;;;;23.10;16.73;;;;;;;13.55;33.36;101899.78;10348833;28;20255;-88
2022/03/21 01:21:30;;;;;;;23.07;14.97;;;;;;;13.86;33.32;101903.38;10382412;28;20275;-90
2022/03/21 01:26:32;;;;;;;22.50;16.40;;;;;;;13.91;33.39;101893.84;10356112;28;20236;-89
2022/03/21 01:31:35;;;;;;;19.00;14.93;;;;;;;13.92;32.87;101884.97;10369802;28;20252;-89
2022/03/21 01:36:38;;;;;;;21.53;15.87;;;;;;;13.91;32.76;101883.31;10347985;28;20263;-89
2022/03/21 01:41:40;;;;;;;25.13;16.43;;;;;;;13.66;33.31;101891.81;10366847;28;20228;-88
2022/03/21 01:46:42;;;;;;;21.27;14.73;;;;;;;13.34;33.50;101891.03;10370728;28;20558;-89
2022/03/21 01:51:45;;;;;;;21.57;16.00;;;;;;;13.98;32.99;101888.50;10374573;28;20279;-92
2022/03/21 01:56:48;;;;;;;24.43;15.37;;;;;;;13.75;33.46;101899.16;10350308;28;20320;-89
2022/03/21 02:01:50;;;;;;;25.87;16.93;;;;;;;14.07;32.79;101899.88;10336660;28;20284;-89
2022/03/21 02:06:54;;;;;;;22.47;16.83;;;;;;;13.67;33.47;101893.50;10346109;28;20202;-89
2022/03/21 02:11:56;;;;;;;22.70;16.77;;;;;;;13.85;33.68;101898.03;10342846;28;20257;-91
2022/03/21 02:16:59;;;;;;;26.47;17.17;;;;;;;13.73;33.65;101892.19;10331038;28;20284;-91
2022/03/21 02:22:19;;;;;;;24.87;16.13;;;;;;;13.50;34.12;101902.78;10347577;28;20228;-90
2022/03/21 02:27:26;;;;;;;23.77;15.60;;;;;;;13.75;33.31;101889.81;10337654;28;20206;-90
2022/03/21 02:32:28;;;;;;;25.53;15.87;;;;;;;13.63;34.00;101883.94;10325769;28;20221;-91
2022/03/21 02:37:31;;;;;;;23.03;17.00;;;;;;;13.66;34.10;101886.13;10284921;28;20237;-91
2022/03/21 02:42:34;;;;;;;24.27;17.17;;;;;;;13.52;34.34;101891.91;10328070;28;20267;-91
2022/03/21 02:47:36;;;;;;;26.03;17.53;;;;;;;13.58;33.90;101885.75;10284558;28;20198;-90
2022/03/21 02:52:39;;;;;;;23.80;16.40;;;;;;;13.57;34.27;101881.25;10284822;28;20257;-91
2022/03/21 02:57:41;;;;;;;22.90;16.47;;;;;;;12.67;35.34;101890.41;10366466;28;20260;-90
2022/03/21 03:02:43;;;;;;;26.43;17.83;;;;;;;13.02;34.93;101889.44;10362049;28;20232;-90
2022/03/21 03:07:46;;;;;;;24.83;17.80;;;;;;;12.57;35.72;101894.34;10376824;28;20852;-90
2022/03/21 03:12:48;;;;;;;26.93;18.43;;;;;;;12.79;35.79;101891.47;10376916;28;20303;-90
2022/03/21 03:17:50;;;;;;;25.53;17.53;;;;;;;13.26;34.51;101887.00;10369036;28;20711;-90
2022/03/21 03:22:53;;;;;;;26.30;19.93;;;;;;;12.88;35.47;101883.88;10389421;28;20224;-90
2022/03/21 03:27:55;;;;;;;25.80;17.20;;;;;;;12.69;35.32;101886.06;10364293;28;20205;-89
2022/03/21 03:32:57;;;;;;;25.43;17.73;;;;;;;12.68;35.92;101878.72;10378566;28;20220;-89
2022/03/21 03:38:00;;;;;;;29.27;18.10;;;;;;;12.64;35.89;101888.22;10368469;28;20217;-90
2022/03/21 03:43:02;;;;;;;25.00;18.60;;;;;;;12.68;35.09;101884.41;10370035;28;20208;-89
2022/03/21 03:48:05;;;;;;;27.37;18.33;;;;;;;12.02;35.86;101888.94;10384300;28;20209;-88
2022/03/21 03:53:07;;;;;;;30.90;19.83;;;;;;;12.31;35.49;101888.50;10358589;28;20228;-89
2022/03/21 03:58:10;;;;;;;28.53;19.73;;;;;;;12.01;35.52;101884.41;10361501;28;20258;-89
2022/03/21 04:08:38;;;;;;;28.17;20.10;;;;;;;11.97;36.21;101897.53;10371348;28;20209;-89
2022/03/21 04:13:41;;;;;;;31.50;20.27;;;;;;;11.98;36.20;101890.72;10353589;28;20259;-90
2022/03/21 04:18:43;;;;;;;27.23;18.93;;;;;;;9.72;39.59;101898.47;10368874;28;20229;-89
2022/03/21 04:24:02;;;;;;;28.57;20.07;;;;;;;9.29;41.04;101903.28;10361140;28;20262;-89
2022/03/21 04:29:04;;;;;;;32.17;20.63;;;;;;;9.17;41.54;101903.72;10380892;28;20208;-89
2022/03/21 04:34:07;;;;;;;30.10;22.20;;;;;;;9.38;40.41;101898.63;10383312;28;20245;-90
2022/03/21 04:39:09;;;;;;;32.13;22.03;;;;;;;9.35;41.23;101905.72;10346546;28;20208;-89
2022/03/21 04:44:11;;;;;;;31.50;22.70;;;;;;;9.08;41.24;101905.50;10386316;28;20209;-90
2022/03/21 04:49:14;;;;;;;32.50;23.50;;;;;;;9.40;40.53;101918.09;10371293;28;20601;-90
2022/03/21 04:54:16;;;;;;;31.20;23.07;;;;;;;9.36;40.18;101918.69;10361990;28;20256;-91
2022/03/21 04:59:18;;;;;;;32.47;22.47;;;;;;;9.02;40.76;101923.63;10351507;28;20972;-90
2022/03/21 05:04:22;;;;;;;29.20;21.07;;;;;;;9.25;39.99;101917.16;10357773;28;20868;-89
2022/03/21 05:09:24;;;;;;;30.53;21.90;;;;;;;9.21;40.16;101924.53;10355130;28;20240;-89
2022/03/21 05:14:26;;;;;;;31.93;21.97;;;;;;;8.90;40.14;101920.38;10347443;28;20279;-88
2022/03/21 05:19:29;;;;;;;28.97;21.60;;;;;;;8.84;40.42;101927.22;10347663;28;20221;-87
2022/03/21 05:40:39;;;;;;;30.47;20.53;;;;;;;8.51;40.20;101934.56;10329713;28;20252;-89
2022/03/21 05:45:41;;;;;;;29.00;21.10;;;;;;;8.11;41.65;101955.47;10354208;28;20232;-89
2022/03/21 05:50:44;;;;;;;27.13;20.83;;;;;;;8.06;41.51;101955.47;10353519;28;20267;-88
2022/03/21 05:55:46;;;;;;;28.33;20.60;;;;;;;8.09;40.84;101966.16;10354659;28;20257;-88
2022/03/21 06:00:49;;;;;;;30.60;21.37;;;;;;;8.22;41.36;101969.16;10355290;28;20327;-89
2022/03/21 06:05:52;;;;;;;29.40;21.47;;;;;;;8.08;41.70;101981.38;10380085;28;20205;-88
2022/03/21 06:11:03;;;;;;;25.93;19.70;;;;;;;7.69;41.68;101992.56;10344200;28;20206;-88
2022/03/21 06:16:06;;;;;;;29.57;21.20;;;;;;;7.29;43.25;101999.19;10390113;28;20556;-87
2022/03/21 06:21:09;;;;;;;31.93;21.17;;;;;;;8.01;41.87;101989.31;10361732;28;20213;-87
2022/03/21 06:26:12;;;;;;;36.67;23.53;;;;;;;8.31;41.36;101997.56;10396440;28;20267;-87
2022/03/21 06:31:15;;;;;;;38.33;24.40;;;;;;;7.44;43.64;101997.16;10349164;28;20205;-87
2022/03/21 06:36:18;;;;;;;40.43;25.17;;;;;;;7.82;43.08;101995.63;10394529;28;20648;-87
2022/03/21 06:41:20;;;;;;;33.87;23.37;;;;;;;7.82;43.44;102006.03;10361289;28;20513;-87
2022/03/21 06:46:23;;;;;;;40.77;23.77;;;;;;;7.97;42.89;102010.75;10398901;28;20250;-87
2022/03/21 06:51:25;;;;;;;42.20;25.40;;;;;;;7.97;43.85;102019.19;10357758;28;20248;-87
2022/03/21 06:56:28;;;;;;;39.03;24.33;;;;;;;8.06;43.87;102025.91;10371404;28;20306;-87
2022/03/21 07:01:32;;;;;;;56.10;27.53;;;;;;;8.08;43.54;102026.44;10383984;28;20205;-87
2022/03/21 07:06:35;;;;;;;51.03;28.07;;;;;;;7.66;44.51;102029.72;10346565;28;20251;-86
2022/03/21 07:11:37;;;;;;;44.37;26.93;;;;;;;8.37;42.64;102020.91;10384065;28;20206;-88
2022/03/21 07:16:44;;;;;;;41.77;25.30;;;;;;;8.68;42.31;102022.38;10376710;28;20248;-87
2022/03/21 07:21:46;;;;;;;44.43;25.47;;;;;;;8.91;41.90;102023.63;10389259;28;20201;-87
2022/03/21 07:26:49;;;;;;;37.13;24.50;;;;;;;9.07;41.93;102029.91;10379895;28;20198;-87
2022/03/21 07:31:51;;;;;;;36.07;24.93;;;;;;;9.28;41.20;102029.44;10349202;28;20213;-87
2022/03/21 07:36:54;;;;;;;34.90;23.83;;;;;;;9.76;40.21;102018.16;10349058;28;20233;-88
2022/03/21 07:42:00;;;;;;;34.47;23.60;;;;;;;9.89;40.53;102014.59;10351093;28;20209;-88
2022/03/21 07:47:20;;;;;;;27.77;21.40;;;;;;;9.92;37.77;102022.47;10370329;28;20270;-88
2022/03/21 07:52:23;;;;;;;25.90;17.60;;;;;;;9.73;36.79;102024.41;10367127;28;20502;-88
2022/03/21 07:57:27;;;;;;;21.23;14.90;;;;;;;10.29;34.48;102029.28;10362257;28;20271;-87
2022/03/21 08:02:29;;;;;;;20.93;14.00;;;;;;;10.86;32.84;102030.94;10361174;28;20380;-87
2022/03/21 08:07:32;;;;;;;16.47;13.03;;;;;;;10.87;31.46;102032.63;10368430;28;20205;-88
2022/03/21 08:12:35;;;;;;;16.63;13.03;;;;;;;10.55;31.32;102041.94;10369613;28;20229;-88
2022/03/21 08:18:11;;;;;;;20.27;12.90;;;;;;;11.04;30.08;102043.34;10339723;28;20318;-87
2022/03/21 08:23:14;;;;;;;16.53;12.60;;;;;;;11.39;29.65;102045.53;10319839;28;20506;-89
2022/03/21 08:28:16;;;;;;;15.40;11.93;;;;;;;11.85;28.60;102041.78;10345492;28;20217;-87
2022/03/21 08:33:19;;;;;;;18.57;12.80;;;;;;;11.57;29.70;102045.78;10358768;28;20221;-88
2022/03/21 08:38:21;;;;;;;18.10;13.10;;;;;;;11.94;28.43;102039.88;10342224;28;20724;-88
2022/03/21 08:43:24;;;;;;;17.23;12.87;;;;;;;11.36;29.49;102037.69;10342285;28;20232;-88
2022/03/21 08:53:48;;;;;;;19.73;12.67;;;;;;;11.94;29.46;102033.38;10362257;28;20216;-88
2022/03/21 08:58:51;;;;;;;18.23;11.77;;;;;;;12.88;27.78;102034.31;10349317;28;20279;-88
2022/03/21 09:03:54;;;;;;;20.30;12.70;;;;;;;13.12;27.41;102022.59;10373230;28;20205;-88
2022/03/21 09:08:57;;;;;;;16.73;12.30;;;;;;;12.91;27.98;102030.00;10362739;28;20286;-88
2022/03/21 09:13:59;;;;;;;16.03;12.40;;;;;;;13.88;26.69;102019.59;10375954;28;20247;-88
2022/03/21 09:19:02;;;;;;;16.65;12.98;;;;;;;11.69;27.51;102029.09;10365537;28;20201;-89
2022/03/21 09:24:05;;;;;;;16.10;11.67;;;;;;;13.03;28.06;102026.56;10352766;28;20243;-89
2022/03/21 09:29:07;;;;;;;15.00;11.50;;;;;;;12.85;28.08;102025.56;10371865;28;20209;-88
2022/03/21 09:34:11;;;;;;;17.40;12.50;;;;;;;13.58;26.69;102010.81;10381454;28;20248;-88
2022/03/21 09:39:14;;;;;;;16.23;11.93;;;;;;;13.27;26.11;102018.50;10350252;28;20217;-89
2022/03/21 09:44:17;;;;;;;15.37;11.83;;;;;;;14.07;26.04;102008.78;10359522;28;20205;-89
2022/03/21 09:49:23;;;;;;;19.08;12.63;;;;;;;13.46;27.38;102007.75;10382860;28;20201;-88
2022/03/21 09:54:25;;;;;;;18.13;12.23;;;;;;;13.83;26.58;102011.25;10361771;28;20609;-89
2022/03/21 09:59:31;;;;;;;17.43;13.60;;;;;;;13.18;27.59;102011.94;10364118;28;20209;-90
2022/03/21 10:04:33;;;;;;;15.13;12.20;;;;;;;14.22;27.16;101991.25;10332371;28;20267;-89
2022/03/21 10:09:35;;;;;;;23.20;12.47;;;;;;;14.78;25.82;101997.91;10373760;28;20270;-89
2022/03/21 10:14:38;;;;;;;19.87;13.87;;;;;;;14.60;26.47;101996.28;10368287;28;20264;-89
2022/03/21 10:19:47;;;;;;;16.52;12.50;;;;;;;15.98;24.66;101992.97;10352173;28;20212;-89
2022/03/21 10:24:51;;;;;;;19.30;12.80;;;;;;;14.92;25.93;101990.03;10399547;28;20208;-88
2022/03/21 10:29:59;;;;;;;17.93;12.63;;;;;;;15.42;25.12;101986.53;10405603;28;20208;-89
2022/03/21 10:35:09;;;;;;;18.80;12.73;;;;;;;15.97;24.70;101983.56;10389104;28;20617;-89
2022/03/21 10:40:27;;;;;;;18.73;13.65;;;;;;;15.85;23.91;101986.34;10423411;28;20193;-89
2022/03/21 10:45:38;;;;;;;18.42;13.13;;;;;;;15.36;25.94;101977.34;10423711;28;20242;-89
2022/03/21 10:50:48;;;;;;;19.27;12.68;;;;;;;15.97;24.98;101985.59;10406149;28;20605;-89
2022/03/21 10:56:05;;;;;;;19.38;13.32;;;;;;;16.05;24.55;101971.28;10429753;28;20251;-89
2022/03/21 11:01:25;;;;;;;21.00;13.98;;;;;;;15.44;24.58;101981.31;10422175;28;20592;-89
2022/03/21 11:06:27;;;;;;;19.47;13.47;;;;;;;16.46;23.67;101977.34;10389364;28;20478;-89
2022/03/21 11:11:30;;;;;;;18.13;13.18;;;;;;;15.32;25.89;101973.50;10422531;28;20242;-89
2022/03/21 11:16:34;;;;;;;16.13;12.25;;;;;;;15.61;25.14;101972.69;10409390;28;20228;-88
2022/03/21 11:21:37;;;;;;;20.40;12.40;;;;;;;16.66;24.29;101971.63;10405621;28;20258;-89
2022/03/21 11:26:53;;;;;;;17.42;12.55;;;;;;;17.04;24.50;101970.56;10397076;28;20200;-88
2022/03/21 11:32:04;;;;;;;17.63;12.02;;;;;;;15.01;26.65;101968.06;10376011;28;20216;-89
2022/03/21 11:37:23;;;;;;;19.05;12.50;;;;;;;17.10;24.01;101957.75;10404153;28;20274;-89
2022/03/21 11:42:25;;;;;;;15.32;10.35;;;;;;;16.77;24.20;101964.28;10409816;28;20204;-89
2022/03/21 11:47:30;;;;;;;15.13;10.23;;;;;;;17.80;23.50;101959.34;10396275;28;20235;-89
2022/03/21 11:53:07;;;;;;;17.65;11.27;;;;;;;16.94;23.72;101960.41;10419991;28;20483;-89
2022/03/21 11:58:22;;;;;;;13.88;11.10;;;;;;;17.16;24.14;101952.63;10377104;28;20229;-89
2022/03/21 12:03:25;;;;;;;16.40;11.48;;;;;;;17.18;25.16;101953.09;10397791;28;20213;-89
2022/03/21 12:08:33;;;;;;;15.27;10.15;;;;;;;18.25;23.32;101938.25;10404463;28;20185;-88
2022/03/21 12:13:41;;;;;;;16.02;9.40;;;;;;;15.74;26.54;101948.00;10404093;28;20200;-87
2022/03/21 12:19:02;;;;;;;16.60;9.30;;;;;;;18.10;23.38;101928.41;10389274;28;20252;-87
2022/03/21 12:24:15;;;;;;;14.05;8.25;;;;;;;17.26;25.02;101937.84;10395394;28;20213;-88
2022/03/21 12:29:34;;;;;;;9.82;7.15;;;;;;;17.64;24.78;101928.91;10419724;28;20201;-89
2022/03/21 12:34:37;;;;;;;11.68;7.80;;;;;;;17.10;24.62;101932.84;10403166;28;20231;-88
2022/03/21 12:39:39;;;;;;;12.23;8.18;;;;;;;18.33;24.01;101920.13;10400011;28;20204;-88
2022/03/21 12:44:42;;;;;;;13.50;8.00;;;;;;;17.46;24.77;101931.22;10341897;28;20213;-88
2022/03/21 12:49:51;;;;;;;12.88;8.32;;;;;;;17.20;24.56;101920.13;10379420;28;20487;-88
2022/03/21 12:54:54;;;;;;;17.77;7.75;;;;;;;17.54;25.29;101921.66;10378709;28;20220;-88
2022/03/21 13:00:16;;;;;;;11.48;7.90;;;;;;;18.46;24.47;101907.41;10360662;28;20251;-87
2022/03/21 13:10:40;;;;;;;12.45;7.75;;;;;;;19.19;23.59;101904.09;10379976;28;20235;-88
2022/03/21 13:15:42;;;;;;;11.43;7.03;;;;;;;18.72;23.57;101906.09;10374678;28;20245;-88
2022/03/21 13:20:47;;;;;;;8.95;6.75;;;;;;;19.35;22.45;101900.41;10344630;28;20267;-88
2022/03/21 13:25:50;;;;;;;10.25;7.60;;;;;;;19.27;22.72;101895.69;10326626;28;20209;-88
2022/03/21 13:30:59;;;;;;;15.80;7.60;;;;;;;19.27;23.33;101901.44;10349170;28;20235;-88
2022/03/21 13:36:07;;;;;;;10.02;7.45;;;;;;;18.19;24.04;101905.34;10344043;28;20248;-88
2022/03/21 13:41:17;;;;;;;10.55;7.50;;;;;;;18.67;23.74;101897.75;10377988;28;20259;-88
2022/03/21 13:46:23;;;;;;;11.48;8.80;;;;;;;19.54;22.37;101884.13;10369935;28;20213;-88
2022/03/21 13:51:27;;;;;;;11.95;7.65;;;;;;;19.67;23.10;101893.44;10373953;28;20746;-88
2022/03/21 13:56:29;;;;;;;10.75;7.10;;;;;;;18.86;23.42;101895.00;10377167;28;20236;-89
2022/03/21 14:01:33;;;;;;;9.60;6.75;;;;;;;18.90;23.52;101893.13;10364074;28;20607;-88
2022/03/21 14:06:35;;;;;;;10.52;6.97;;;;;;;17.68;24.61;101892.72;10346765;28;20680;-90
2022/03/21 14:12:01;;;;;;;12.35;8.35;;;;;;;18.76;23.15;101884.09;10392800;28;20330;-87
2022/03/21 14:17:04;;;;;;;11.27;6.80;;;;;;;19.11;23.06;101882.19;10404716;28;20533;-87
2022/03/21 14:22:06;;;;;;;10.35;7.05;;;;;;;18.87;23.06;101876.63;10407586;28;20235;-86
2022/03/21 14:27:09;;;;;;;10.10;5.40;;;;;;;19.64;22.41;101871.25;10407189;28;20506;-88
2022/03/21 14:32:11;;;;;;;11.57;6.15;;;;;;;19.67;22.82;101870.50;10407532;28;20197;-90
2022/03/21 14:37:13;;;;;;;9.07;6.03;;;;;;;18.73;24.34;101876.25;10390411;28;20233;-89
2022/03/21 14:42:16;;;;;;;10.70;6.72;;;;;;;19.02;23.36;101863.53;10411423;28;20550;-87
2022/03/21 14:47:18;;;;;;;8.95;6.07;;;;;;;19.94;22.56;101858.00;10405081;28;20200;-87
2022/03/21 14:52:20;;;;;;;8.88;6.05;;;;;;;20.18;21.58;101861.81;10399091;28;20193;-87
2022/03/21 14:57:23;;;;;;;9.82;6.32;;;;;;;19.04;23.12;101861.13;10364402;28;20229;-87
2022/03/21 15:02:25;;;;;;;8.68;6.32;;;;;;;20.59;22.58;101858.13;10365210;28;20441;-87
2022/03/21 15:07:27;;;;;;;9.70;5.45;;;;;;;20.20;22.19;101859.41;10365468;28;20240;-84
2022/03/21 15:12:30;;;;;;;7.45;5.70;;;;;;;19.23;23.19;101856.28;10415404;28;20198;-85
2022/03/21 15:17:33;;;;;;;7.93;5.57;;;;;;;20.48;21.93;101854.19;10403503;28;20282;-86
2022/03/21 15:22:35;;;;;;;9.80;5.88;;;;;;;20.15;22.11;101851.91;10396180;28;20216;-85
2022/03/21 15:27:37;;;;;;;5.68;5.15;;;;;;;20.54;21.58;101855.56;10392838;28;20201;-88
2022/03/21 15:32:40;;;;;;;10.13;5.38;;;;;;;19.44;22.86;101850.22;10372401;28;20557;-87
2022/03/21 15:43:04;;;;;;;8.68;6.18;;;;;;;20.03;22.34;101848.31;10391880;28;20208;-88
2022/03/21 15:48:07;;;;;;;7.00;6.15;;;;;;;20.44;21.13;101844.69;10377432;28;20208;-85
2022/03/21 15:53:12;;;;;;;12.88;5.80;;;;;;;20.52;21.25;101843.59;10377384;28;20282;-85
2022/03/21 15:58:14;;;;;;;7.88;5.60;;;;;;;19.73;22.58;101834.53;10373980;28;20251;-85
2022/03/21 16:03:16;;;;;;;10.45;6.82;;;;;;;19.43;22.79;101842.03;10338548;28;20220;-85
2022/03/21 16:08:20;;;;;;;8.63;5.47;;;;;;;20.94;21.31;101837.84;10336641;28;20233;-90
2022/03/21 16:13:23;;;;;;;9.45;4.43;;;;;;;20.37;21.79;101841.66;10351151;28;20243;-87
2022/03/21 16:18:28;;;;;;;8.50;4.85;;;;;;;20.52;21.25;101832.13;10378547;28;20573;-87
2022/03/21 16:23:33;;;;;;;12.90;6.72;;;;;;;20.47;21.46;101838.19;10361511;28;20193;-84
2022/03/21 16:28:36;;;;;;;8.43;5.05;;;;;;;19.27;23.36;101839.19;10361031;28;20244;-87
2022/03/21 16:33:38;;;;;;;11.60;5.30;;;;;;;20.45;20.98;101843.50;10364784;28;20200;-88
2022/03/21 16:38:41;;;;;;;7.35;4.57;;;;;;;20.18;22.04;101838.84;10373184;28;20260;-88
2022/03/21 16:44:03;;;;;;;10.70;4.63;;;;;;;20.46;21.14;101836.53;10354248;28;20240;-84
2022/03/21 16:49:06;;;;;;;6.15;4.18;;;;;;;20.51;21.12;101844.81;10357998;28;20644;-89
2022/03/21 16:54:09;;;;;;;8.05;4.57;;;;;;;20.15;21.65;101839.59;10355624;28;20762;-85
2022/03/21 16:59:12;;;;;;;13.60;9.07;;;;;;;19.37;23.49;101850.06;10360557;28;20279;-88
2022/03/21 17:04:15;;;;;;;8.50;5.25;;;;;;;19.82;22.03;101840.91;10360424;28;20204;-88
2022/03/21 17:09:18;;;;;;;11.43;5.03;;;;;;;19.86;22.09;101844.69;10357763;28;20220;-87
2022/03/21 17:14:21;;;;;;;9.73;5.80;;;;;;;19.56;23.04;101846.47;10362349;28;20538;-87
2022/03/21 17:24:47;;;;;;;10.98;4.60;;;;;;;19.53;23.67;101858.69;10355082;28;20235;-89
2022/03/21 17:29:49;;;;;;;10.55;5.15;;;;;;;18.52;25.58;101860.16;10361176;28;20256;-87
2022/03/21 17:34:52;;;;;;;14.02;8.68;;;;;;;18.04;24.99;101874.63;10348357;28;20209;-88
2022/03/21 17:39:54;;;;;;;17.88;11.05;;;;;;;18.75;24.33;101879.56;10375157;28;20530;-87
2022/03/21 17:44:57;;;;;;;16.85;12.32;;;;;;;18.67;24.46;101878.53;10359997;28;20209;-87
2022/03/21 17:49:59;;;;;;;21.95;13.82;;;;;;;18.29;24.49;101881.94;10375860;28;20541;-87
2022/03/21 17:55:01;;;;;;;17.85;12.65;;;;;;;18.39;25.23;101889.22;10372237;28;20278;-89
2022/03/21 18:00:07;;;;;;;19.42;13.35;;;;;;;18.09;25.20;101889.53;10400910;28;20256;-87
2022/03/21 18:05:13;;;;;;;22.80;14.02;;;;;;;18.10;25.14;101898.94;10364683;28;20251;-90
2022/03/21 18:10:15;;;;;;;16.83;12.00;;;;;;;17.95;26.17;101896.84;10353648;28;20205;-88
2022/03/21 18:15:19;;;;;;;19.08;12.50;;;;;;;17.76;26.05;101912.59;10374906;28;20233;-88
2022/03/21 18:20:21;;;;;;;20.25;12.93;;;;;;;17.56;26.73;101901.28;10363077;28;20295;-88
2022/03/21 18:25:23;;;;;;;21.10;13.98;;;;;;;17.33;26.68;101912.38;10341647;28;20205;-88
2022/03/21 18:30:25;;;;;;;18.70;13.67;;;;;;;17.31;26.67;101912.75;10364802;28;20240;-89
2022/03/21 18:35:28;;;;;;;19.30;13.43;;;;;;;17.24;26.97;101917.38;10355888;28;20233;-88
2022/03/21 18:40:31;;;;;;;24.38;15.77;;;;;;;17.16;26.77;101918.31;10364779;28;20213;-88
2022/03/21 18:45:43;;;;;;;24.13;14.43;;;;;;;16.97;27.62;101919.72;10375410;28;20271;-89
2022/03/21 18:50:45;;;;;;;25.05;16.20;;;;;;;16.76;27.02;101924.66;10342347;28;20487;-88
2022/03/21 18:55:49;;;;;;;28.13;15.90;;;;;;;16.61;27.19;101933.88;10357917;28;20225;-87
2022/03/21 19:00:53;;;;;;;26.30;17.02;;;;;;;16.71;27.20;101933.47;10381307;28;20252;-89
2022/03/21 19:05:56;;;;;;;27.63;17.17;;;;;;;16.17;27.90;101942.00;10371972;28;20209;-88
2022/03/21 19:11:00;;;;;;;26.03;18.53;;;;;;;16.41;27.54;101945.00;10360325;28;20205;-88
2022/03/21 19:16:06;;;;;;;29.40;18.57;;;;;;;15.96;28.79;101952.53;10381346;28;20248;-88
2022/03/21 19:21:28;;;;;;;30.70;19.65;;;;;;;16.01;28.39;101950.34;10340162;28;20557;-88
2022/03/21 19:26:30;;;;;;;34.43;17.60;;;;;;;15.61;29.36;101958.44;10362657;28;20255;-88
2022/03/21 19:31:34;;;;;;;24.20;17.10;;;;;;;15.45;29.61;101954.50;10359878;28;20661;-87
2022/03/21 19:36:36;;;;;;;28.70;17.00;;;;;;;15.36;29.90;101954.56;10301666;28;20299;-88
2022/03/21 19:41:40;;;;;;;31.73;16.17;;;;;;;15.03;30.29;101959.19;10358662;28;20193;-89
2022/03/21 19:46:42;;;;;;;26.57;17.73;;;;;;;15.05;30.23;101956.00;10328677;28;20201;-87
2022/03/21 19:51:45;;;;;;;25.00;16.73;;;;;;;15.15;30.34;101970.75;10375147;28;20225;-87
2022/03/21 19:56:47;;;;;;;27.07;17.77;;;;;;;15.11;29.97;101966.91;10394058;28;20495;-86
2022/03/21 20:01:50;;;;;;;24.30;17.10;;;;;;;15.27;30.06;101970.84;10356496;28;20212;-87
2022/03/21 20:06:53;;;;;;;23.67;17.05;;;;;;;15.22;29.52;101978.75;10395491;28;20730;-88
2022/03/21 20:11:55;;;;;;;27.20;17.27;;;;;;;15.48;29.33;101973.78;10397157;28;20208;-88
2022/03/21 20:17:01;;;;;;;25.10;16.30;;;;;;;15.12;29.86;101976.28;10374572;28;20221;-87
2022/03/21 20:22:03;;;;;;;24.27;16.33;;;;;;;15.30;29.58;101975.00;10343495;28;20236;-87
2022/03/21 20:27:06;;;;;;;28.50;17.60;;;;;;;14.96;29.86;101982.47;10350264;28;20255;-88
2022/03/21 20:32:11;;;;;;;26.33;17.70;;;;;;;14.94;30.04;101984.81;10356397;28;20216;-88
2022/03/21 20:37:16;;;;;;;24.97;17.60;;;;;;;14.60;30.87;101985.72;10364401;28;20228;-88
2022/03/21 20:42:19;;;;;;;25.10;18.97;;;;;;;14.44;30.53;101981.72;10395533;28;20606;-87
2022/03/21 20:47:22;;;;;;;24.70;16.63;;;;;;;14.31;31.24;101989.22;10388270;28;20228;-88
2022/03/21 20:52:28;;;;;;;26.60;17.43;;;;;;;13.93;31.48;101991.03;10353284;28;20659;-87
2022/03/21 20:57:30;;;;;;;24.57;16.93;;;;;;;14.18;30.80;101989.38;10319681;28;20225;-88
2022/03/21 21:02:32;;;;;;;27.43;17.33;;;;;;;13.96;30.58;101998.91;10382207;28;20675;-86
2022/03/21 21:07:35;;;;;;;18.73;14.53;;;;;;;13.61;31.04;101993.09;10378630;28;20208;-86
2022/03/21 21:12:37;;;;;;;18.27;13.93;;;;;;;14.13;29.56;101998.91;10393975;28;20209;-87
2022/03/21 21:17:39;;;;;;;19.83;13.43;;;;;;;14.52;28.93;101997.09;10410127;28;20286;-87
2022/03/21 21:22:42;;;;;;;29.93;19.80;;;;;;;14.83;28.02;102000.59;10382780;28;20256;-87
2022/03/21 21:27:44;;;;;;;17.87;13.37;;;;;;;15.37;27.79;101993.28;10377770;28;20205;-89
2022/03/21 21:32:47;;;;;;;18.67;12.63;;;;;;;15.15;27.73;102004.09;10360873;28;20205;-89
2022/03/21 21:37:49;;;;;;;15.50;11.97;;;;;;;15.23;27.67;102004.06;10374193;28;20351;-88
2022/03/21 21:42:57;;;;;;;18.00;13.20;;;;;;;14.96;27.37;101999.56;10361945;28;20294;-86
2022/03/21 21:48:00;;;;;;;17.70;12.87;;;;;;;14.77;28.17;101998.28;10362067;28;20201;-87
2022/03/21 21:53:03;;;;;;;18.93;12.50;;;;;;;14.90;27.94;101998.06;10360581;28;20206;-88
2022/03/21 21:58:05;;;;;;;17.60;11.60;;;;;;;14.40;28.41;102006.31;10365741;28;20745;-88
2022/03/21 22:03:09;;;;;;;15.57;11.30;;;;;;;14.79;27.66;102005.28;10374281;28;20197;-86
2022/03/21 22:08:14;;;;;;;14.27;10.37;;;;;;;14.20;28.20;102004.94;10351852;28;20201;-87
2022/03/21 22:13:19;;;;;;;14.85;10.60;;;;;;;14.10;27.53;102008.13;10354890;28;20585;-90
2022/03/21 22:18:21;;;;;;;16.70;10.43;;;;;;;14.16;27.57;102006.78;10357675;28;20241;-91
2022/03/21 22:23:23;;;;;;;18.57;10.80;;;;;;;13.24;28.46;102016.31;10342507;28;20307;-90
2022/03/21 22:28:26;;;;;;;13.57;10.93;;;;;;;13.12;27.91;102018.91;10355014;28;20237;-90
2022/03/21 22:33:28;;;;;;;14.67;10.73;;;;;;;12.26;28.43;102026.75;10356460;28;20237;-90
2022/03/21 22:38:31;;;;;;;14.67;9.67;;;;;;;13.24;27.71;102022.00;10351963;28;20310;-91
2022/03/21 22:48:55;;;;;;;16.43;10.53;;;;;;;12.66;27.11;102022.94;10354304;28;20205;-91
2022/03/21 22:53:58;;;;;;;14.93;10.73;;;;;;;12.74;27.28;102013.63;10392309;28;20208;-90
2022/03/21 22:59:00;;;;;;;14.80;10.90;;;;;;;12.87;26.82;102018.44;10383061;28;20228;-90
2022/03/21 23:04:03;;;;;;;16.93;10.87;;;;;;;13.53;25.39;102013.78;10383625;28;20254;-90
2022/03/21 23:09:07;;;;;;;17.40;11.47;;;;;;;14.37;24.96;102003.31;10383566;28;20228;-93
2022/03/21 23:14:10;;;;;;;15.73;10.87;;;;;;;14.12;25.08;101997.22;10399464;28;20196;-90
2022/03/21 23:19:12;;;;;;;14.83;10.87;;;;;;;14.68;24.83;102003.97;10362824;28;20233;-89
2022/03/21 23:24:19;;;;;;;14.83;11.07;;;;;;;14.51;24.61;102003.97;10398911;28;20331;-91
2022/03/21 23:29:22;;;;;;;16.37;11.50;;;;;;;13.95;25.06;102000.06;10357369;28;20955;-90
2022/03/21 23:34:25;;;;;;;17.53;11.40;;;;;;;14.04;24.94;102002.91;10377922;28;20236;-89
2022/03/21 23:42:19;;;;;;;17.03;11.47;;;;;;;14.16;24.51;102005.94;10356357;28;20518;-90